createdAt,value
2023-02-28T00:01:51.541Z,20.25
2023-02-28T00:05:02.254Z,19.65
2023-02-28T00:08:04.811Z,21.95
2023-02-28T00:11:10.883Z,21.45
2023-02-28T00:14:13.382Z,21.23
2023-02-28T00:17:17.370Z,19.17
2023-02-28T00:20:20.417Z,16.73
2023-02-28T00:23:22.850Z,15.50
2023-02-28T00:26:25.269Z,14.43
2023-02-28T00:29:27.619Z,12.93
2023-02-28T00:32:30.713Z,13.02
2023-02-28T00:35:33.127Z,10.35
2023-02-28T00:38:35.705Z,13.73
2023-02-28T00:41:38.057Z,14.30
2023-02-28T00:44:40.441Z,24.13
2023-02-28T00:47:42.873Z,29.10
2023-02-28T00:50:45.387Z,30.95
2023-02-28T00:53:47.740Z,35.17
2023-02-28T00:56:50.317Z,25.85
2023-02-28T00:59:55.273Z,28.55
2023-02-28T01:02:57.987Z,24.77
2023-02-28T01:06:00.674Z,22.70
2023-02-28T01:09:04.092Z,23.08
2023-02-28T01:12:06.870Z,24.63
2023-02-28T01:15:12.481Z,17.67
2023-02-28T01:18:14.960Z,28.35
2023-02-28T01:21:19.918Z,34.72
2023-02-28T01:24:22.304Z,30.15
2023-02-28T01:27:24.819Z,30.40
2023-02-28T01:30:28.581Z,30.90
2023-02-28T01:33:31.387Z,24.63
2023-02-28T01:36:35.520Z,29.58
2023-02-28T01:39:37.886Z,33.38
2023-02-28T01:42:40.229Z,27.02
2023-02-28T01:45:43.053Z,24.90
2023-02-28T01:49:05.685Z,17.48
2023-02-28T01:52:08.507Z,19.00
2023-02-28T01:55:11.992Z,21.25
2023-02-28T01:58:14.795Z,20.33
2023-02-28T02:01:22.648Z,12.70
2023-02-28T02:04:28.710Z,18.52
2023-02-28T02:07:34.180Z,18.15
2023-02-28T02:10:45.799Z,16.65
2023-02-28T02:14:04.639Z,15.80
2023-02-28T02:17:24.847Z,16.30
2023-02-28T02:20:53.613Z,16.73
2023-02-28T02:24:20.645Z,20.50
2023-02-28T02:27:58.629Z,18.83
2023-02-28T02:31:16.020Z,18.95
2023-02-28T02:34:44.337Z,17.67
2023-02-28T02:38:03.894Z,18.15
2023-02-28T02:41:29.498Z,16.95
2023-02-28T02:44:51.850Z,18.83
2023-02-28T02:47:55.158Z,17.35
2023-02-28T02:51:01.995Z,19.08
2023-02-28T02:54:12.016Z,21.45
2023-02-28T02:57:21.832Z,19.00
2023-02-28T03:00:32.197Z,19.05
2023-02-28T03:03:35.018Z,21.73
2023-02-28T03:09:40.782Z,20.08
2023-02-28T03:12:52.218Z,14.38
2023-02-28T03:16:07.543Z,19.55
2023-02-28T03:19:28.328Z,20.60
2023-02-28T03:22:36.130Z,19.98
2023-02-28T03:25:47.630Z,19.92
2023-02-28T03:28:58.296Z,20.20
2023-02-28T03:32:22.703Z,18.13
2023-02-28T03:35:28.670Z,18.77
2023-02-28T03:38:47.764Z,23.23
2023-02-28T03:41:54.701Z,21.60
2023-02-28T03:45:02.825Z,23.45
2023-02-28T03:48:17.965Z,23.88
2023-02-28T03:51:23.153Z,23.40
2023-02-28T03:54:29.968Z,20.05
2023-02-28T03:57:42.423Z,25.08
2023-02-28T04:00:48.624Z,25.27
2023-02-28T04:03:51.258Z,25.27
2023-02-28T04:07:03.265Z,24.50
2023-02-28T04:10:06.660Z,24.63
2023-02-28T04:13:09.026Z,27.45
2023-02-28T04:16:18.830Z,27.50
2023-02-28T04:19:27.021Z,24.17
2023-02-28T04:22:29.253Z,24.80
2023-02-28T04:25:31.665Z,23.33
2023-02-28T04:28:34.912Z,23.50
2023-02-28T04:31:37.451Z,23.17
2023-02-28T04:34:40.043Z,22.88
2023-02-28T04:37:42.358Z,23.52
2023-02-28T04:40:44.772Z,23.08
2023-02-28T04:43:47.128Z,24.23
2023-02-28T04:46:50.325Z,21.02
2023-02-28T04:49:52.726Z,24.02
2023-02-28T04:52:55.763Z,23.27
2023-02-28T04:55:59.293Z,19.13
2023-02-28T04:59:01.583Z,19.25
2023-02-28T05:02:08.116Z,20.13
2023-02-28T05:05:10.801Z,20.48
2023-02-28T05:08:13.201Z,22.65
2023-02-28T05:11:27.602Z,21.05
2023-02-28T05:14:30.288Z,22.48
2023-02-28T05:17:32.963Z,25.60
2023-02-28T05:20:35.249Z,29.83
2023-02-28T05:23:37.712Z,29.65
2023-02-28T05:26:42.558Z,39.05
2023-02-28T05:29:45.040Z,36.53
2023-02-28T05:32:52.085Z,31.50
2023-02-28T05:35:54.626Z,30.42
2023-02-28T05:38:57.020Z,30.50
2023-02-28T05:41:59.436Z,35.28
2023-02-28T05:45:01.918Z,32.38
2023-02-28T05:48:04.595Z,23.00
2023-02-28T05:51:07.956Z,29.58
2023-02-28T05:54:13.513Z,26.38
2023-02-28T05:57:24.310Z,27.52
2023-02-28T06:00:27.428Z,27.27
2023-02-28T06:03:29.900Z,29.40
2023-02-28T06:06:32.523Z,28.02
2023-02-28T06:09:35.016Z,21.23
2023-02-28T06:12:37.474Z,28.70
2023-02-28T06:15:40.268Z,30.08
2023-02-28T06:18:42.957Z,22.33
2023-02-28T06:21:45.405Z,35.65
2023-02-28T06:24:47.692Z,39.90
2023-02-28T06:27:50.324Z,60.08
2023-02-28T06:30:53.510Z,65.05
2023-02-28T06:33:57.150Z,59.50
2023-02-28T06:37:03.231Z,47.45
2023-02-28T06:40:07.992Z,46.92
2023-02-28T06:43:10.352Z,52.85
2023-02-28T06:46:15.792Z,51.85
2023-02-28T06:49:18.271Z,50.92
2023-02-28T06:52:20.658Z,52.30
2023-02-28T06:55:23.051Z,54.67
2023-02-28T06:58:25.566Z,44.60
2023-02-28T07:01:29.438Z,41.85
2023-02-28T07:04:32.194Z,42.25
2023-02-28T07:07:35.277Z,42.38
2023-02-28T07:10:41.051Z,41.33
2023-02-28T07:13:43.448Z,37.03
2023-02-28T07:16:46.663Z,36.60
2023-02-28T07:19:49.117Z,38.10
2023-02-28T07:22:57.343Z,32.80
2023-02-28T07:25:59.748Z,32.30
2023-02-28T07:29:03.288Z,31.23
2023-02-28T07:32:06.035Z,33.03
2023-02-28T07:35:08.968Z,33.57
2023-02-28T07:38:11.684Z,29.57
2023-02-28T07:41:14.166Z,26.90
2023-02-28T07:44:16.754Z,25.30
2023-02-28T07:47:19.111Z,24.75
2023-02-28T07:50:21.608Z,28.25
2023-02-28T07:53:24.104Z,36.22
2023-02-28T07:56:26.582Z,45.50
2023-02-28T07:59:31.254Z,42.28
2023-02-28T08:02:35.012Z,43.83
2023-02-28T08:05:41.296Z,38.83
2023-02-28T08:08:43.706Z,33.67
2023-02-28T08:11:46.084Z,32.33
2023-02-28T08:14:48.383Z,27.65
2023-02-28T08:17:50.656Z,26.52
2023-02-28T08:20:53.054Z,28.45
2023-02-28T08:23:55.475Z,30.52
2023-02-28T08:26:58.122Z,37.40
2023-02-28T08:30:00.443Z,37.95
2023-02-28T08:33:03.040Z,33.30
2023-02-28T08:36:05.848Z,30.08
2023-02-28T08:39:08.819Z,22.60
2023-02-28T08:42:11.450Z,14.00
2023-02-28T08:45:15.260Z,20.50
2023-02-28T08:51:27.784Z,25.25
2023-02-28T08:54:32.506Z,25.33
2023-02-28T08:57:34.896Z,27.98
2023-02-28T09:00:37.834Z,28.33
2023-02-28T09:03:42.541Z,24.03
2023-02-28T09:06:45.576Z,24.23
2023-02-28T09:09:57.912Z,28.63
2023-02-28T09:13:00.306Z,25.70
2023-02-28T09:16:04.235Z,29.30
2023-02-28T09:22:08.840Z,29.15
2023-02-28T09:25:11.179Z,29.88
2023-02-28T09:28:13.493Z,28.33
2023-02-28T09:31:22.162Z,27.83
2023-02-28T09:34:24.612Z,26.20
2023-02-28T09:37:32.133Z,22.15
2023-02-28T09:40:37.940Z,14.32
2023-02-28T09:43:43.066Z,11.00
2023-02-28T09:46:48.978Z,7.60
2023-02-28T09:49:51.714Z,10.73
2023-02-28T09:52:55.181Z,12.15
2023-02-28T09:56:00.749Z,6.50
2023-02-28T09:59:07.084Z,8.77
2023-02-28T10:02:12.691Z,7.90
2023-02-28T10:05:18.301Z,8.23
2023-02-28T10:08:46.255Z,6.90
2023-02-28T10:11:48.957Z,7.38
2023-02-28T10:14:53.636Z,7.22
2023-02-28T10:18:08.565Z,7.53
2023-02-28T10:21:21.257Z,9.23
2023-02-28T10:24:37.456Z,8.57
2023-02-28T10:27:39.880Z,7.85
2023-02-28T10:30:45.258Z,6.70
2023-02-28T10:33:47.911Z,7.60
2023-02-28T10:36:51.159Z,10.38
2023-02-28T10:39:53.561Z,7.55
2023-02-28T10:43:05.793Z,11.88
2023-02-28T10:46:10.971Z,11.75
2023-02-28T10:49:23.466Z,10.80
2023-02-28T10:52:38.468Z,9.80
2023-02-28T10:55:40.842Z,9.90
2023-02-28T10:58:58.340Z,10.93
2023-02-28T11:02:01.048Z,11.00
2023-02-28T11:05:03.618Z,10.70
2023-02-28T11:08:15.952Z,11.95
2023-02-28T11:11:19.333Z,13.80
2023-02-28T11:14:23.800Z,12.75
2023-02-28T11:17:28.990Z,12.15
2023-02-28T11:20:34.344Z,13.25
2023-02-28T11:23:38.720Z,12.25
2023-02-28T11:26:46.632Z,12.43
2023-02-28T11:29:49.335Z,11.02
2023-02-28T11:32:51.980Z,11.57
2023-02-28T11:35:54.931Z,8.40
2023-02-28T11:39:11.919Z,8.32
2023-02-28T11:42:19.913Z,7.28
2023-02-28T11:45:43.941Z,6.57
2023-02-28T11:48:55.228Z,4.65
2023-02-28T11:52:15.966Z,4.80
2023-02-28T11:55:21.035Z,4.15
2023-02-28T11:58:33.007Z,3.83
2023-02-28T12:01:48.477Z,4.63
2023-02-28T12:05:14.814Z,4.65
2023-02-28T12:08:35.875Z,4.40
2023-02-28T12:11:54.996Z,4.35
2023-02-28T12:15:51.255Z,4.40
2023-02-28T12:19:24.234Z,4.32
2023-02-28T12:22:31.392Z,4.65
2023-02-28T12:26:05.693Z,5.20
2023-02-28T12:29:30.655Z,4.30
2023-02-28T12:32:40.046Z,5.30
2023-02-28T12:35:56.802Z,5.53
2023-02-28T12:39:11.632Z,6.07
2023-02-28T12:42:27.204Z,5.68
2023-02-28T12:45:44.086Z,5.15
2023-02-28T12:48:49.973Z,5.47
2023-02-28T12:51:52.669Z,5.35
2023-02-28T12:55:00.033Z,5.65
2023-02-28T12:58:31.405Z,5.38
2023-02-28T13:01:44.761Z,6.13
2023-02-28T13:05:24.433Z,9.38
2023-02-28T13:08:57.567Z,5.70
2023-02-28T13:12:00.612Z,4.50
2023-02-28T13:15:06.328Z,3.70
2023-02-28T13:18:38.413Z,4.32
2023-02-28T13:21:45.696Z,5.63
2023-02-28T13:24:55.337Z,6.03
2023-02-28T13:27:58.161Z,4.13
2023-02-28T13:31:01.389Z,3.88
2023-02-28T13:34:13.079Z,3.77
2023-02-28T13:37:21.396Z,4.72
2023-02-28T13:40:38.093Z,5.22
2023-02-28T13:44:18.561Z,5.03
2023-02-28T13:47:26.112Z,5.35
2023-02-28T13:50:28.428Z,5.45
2023-02-28T13:54:09.032Z,6.20
2023-02-28T13:57:17.085Z,6.85
2023-02-28T14:00:37.857Z,7.25
2023-02-28T14:04:33.571Z,6.75
2023-02-28T14:07:45.578Z,7.23
2023-02-28T14:10:51.274Z,7.90
2023-02-28T14:13:53.734Z,7.65
2023-02-28T14:16:56.329Z,6.88
2023-02-28T14:19:59.587Z,7.40
2023-02-28T14:23:06.726Z,5.50
2023-02-28T14:26:31.087Z,5.70
2023-02-28T14:29:52.302Z,4.30
2023-02-28T14:33:13.073Z,4.70
2023-02-28T14:36:35.037Z,5.55
2023-02-28T14:39:38.040Z,4.47
2023-02-28T14:42:44.938Z,4.28
2023-02-28T14:45:51.937Z,4.72
2023-02-28T14:48:54.312Z,5.55
2023-02-28T14:52:17.041Z,5.60
2023-02-28T14:55:29.765Z,6.30
2023-02-28T14:58:34.534Z,7.95
2023-02-28T15:01:37.067Z,6.63
2023-02-28T15:04:39.571Z,5.53
2023-02-28T15:07:41.994Z,6.25
2023-02-28T15:11:13.397Z,7.22
2023-02-28T15:14:20.164Z,8.18
2023-02-28T15:17:24.992Z,7.00
2023-02-28T15:20:28.118Z,6.22
2023-02-28T15:23:32.322Z,7.00
2023-02-28T15:29:58.997Z,7.45
2023-02-28T15:33:22.531Z,7.70
2023-02-28T15:36:32.937Z,8.30
2023-02-28T15:39:43.762Z,8.82
2023-02-28T15:43:01.307Z,10.48
2023-02-28T15:46:11.904Z,21.65
2023-02-28T15:49:21.349Z,23.05
2023-02-28T15:52:30.466Z,21.08
2023-02-28T15:55:32.900Z,24.52
2023-02-28T15:58:37.791Z,29.95
2023-02-28T16:01:40.570Z,26.38
2023-02-28T16:05:11.809Z,21.08
2023-02-28T16:08:17.039Z,57.83
2023-02-28T16:11:20.853Z,77.53
2023-02-28T16:14:33.577Z,64.90
2023-02-28T16:17:39.524Z,40.88
2023-02-28T16:20:42.598Z,27.70
2023-02-28T16:23:44.926Z,25.50
2023-02-28T16:26:49.510Z,28.05
2023-02-28T16:29:51.916Z,28.92
2023-02-28T16:32:55.519Z,28.90
2023-02-28T16:35:57.947Z,27.05
2023-02-28T16:39:00.464Z,31.80
2023-02-28T16:42:03.096Z,28.85
2023-02-28T16:45:05.847Z,40.78
2023-02-28T16:48:13.098Z,38.13
2023-02-28T16:51:17.105Z,53.88
2023-02-28T16:57:24.900Z,20.25
2023-02-28T17:00:29.449Z,18.15
2023-02-28T17:03:33.662Z,23.00
2023-02-28T17:06:36.484Z,29.73
2023-02-28T17:09:42.609Z,31.83
2023-02-28T17:12:46.455Z,27.63
2023-02-28T17:15:49.604Z,24.65
2023-02-28T17:18:52.568Z,18.60
2023-02-28T17:21:55.016Z,66.55
2023-02-28T17:25:01.754Z,56.72
2023-02-28T17:28:04.429Z,32.67
2023-02-28T17:31:06.856Z,23.77
2023-02-28T17:34:09.486Z,18.30
2023-02-28T17:37:11.847Z,13.23
2023-02-28T17:40:20.093Z,14.52
2023-02-28T17:43:22.493Z,16.13
2023-02-28T17:46:26.228Z,15.63
2023-02-28T17:49:28.815Z,16.98
2023-02-28T17:52:32.050Z,16.52
2023-02-28T17:55:35.561Z,14.75
2023-02-28T17:58:38.148Z,21.45
2023-02-28T18:01:41.019Z,23.23
2023-02-28T18:04:43.830Z,22.95
2023-02-28T18:07:46.369Z,24.33
2023-02-28T18:10:48.936Z,26.92
2023-02-28T18:13:53.785Z,33.33
2023-02-28T18:16:57.673Z,33.15
2023-02-28T18:23:03.294Z,33.38
2023-02-28T18:26:09.276Z,18.42
2023-02-28T18:29:24.433Z,18.50
2023-02-28T18:32:27.598Z,20.15
2023-02-28T18:35:37.429Z,20.85
2023-02-28T18:38:40.463Z,22.30
2023-02-28T18:41:42.929Z,21.65
2023-02-28T18:44:45.456Z,22.45
2023-02-28T18:47:48.184Z,23.30
2023-02-28T18:50:51.817Z,23.65
2023-02-28T18:53:54.395Z,21.70
2023-02-28T18:56:56.798Z,20.85
2023-02-28T18:59:59.169Z,20.80
2023-02-28T19:03:01.576Z,21.45
2023-02-28T19:06:04.060Z,23.45
2023-02-28T19:09:06.917Z,21.58
2023-02-28T19:12:09.548Z,20.30
2023-02-28T19:15:12.927Z,19.88
2023-02-28T19:18:15.486Z,19.55
2023-02-28T19:21:19.705Z,19.70
2023-02-28T19:24:22.022Z,19.55
2023-02-28T19:27:24.606Z,20.27
2023-02-28T19:30:26.942Z,19.33
2023-02-28T19:33:29.923Z,18.88
2023-02-28T19:36:32.348Z,19.20
2023-02-28T19:39:41.210Z,21.15
2023-02-28T19:42:43.731Z,24.95
2023-02-28T19:45:46.480Z,22.67
2023-02-28T19:48:48.990Z,23.55
2023-02-28T19:51:51.292Z,31.10
2023-02-28T19:54:53.631Z,27.63
2023-02-28T19:57:56.011Z,28.92
2023-02-28T20:00:58.546Z,22.83
2023-02-28T20:04:02.093Z,22.58
2023-02-28T20:07:04.675Z,22.52
2023-02-28T20:10:07.631Z,25.00
2023-02-28T20:13:09.949Z,24.70
2023-02-28T20:16:14.187Z,25.33
2023-02-28T20:19:17.351Z,26.13
2023-02-28T20:22:19.629Z,17.83
2023-02-28T20:25:22.016Z,23.08
2023-02-28T20:28:24.495Z,24.05
2023-02-28T20:31:28.790Z,26.48
2023-02-28T20:34:31.117Z,25.23
2023-02-28T20:37:33.420Z,27.00
2023-02-28T20:40:35.712Z,26.15
2023-02-28T20:43:38.014Z,24.88
2023-02-28T20:46:41.730Z,27.02
2023-02-28T20:49:44.047Z,27.08
2023-02-28T20:52:46.373Z,29.77
2023-02-28T20:56:02.725Z,30.35
2023-02-28T20:59:05.657Z,24.25
2023-02-28T21:02:08.433Z,28.23
2023-02-28T21:05:10.909Z,28.50
2023-02-28T21:08:13.237Z,29.70
2023-02-28T21:11:18.176Z,29.35
2023-02-28T21:14:20.534Z,30.60
2023-02-28T21:17:22.966Z,28.67
2023-02-28T21:20:25.335Z,32.60
2023-02-28T21:23:27.733Z,26.20
2023-02-28T21:26:30.522Z,25.17
2023-02-28T21:29:33.021Z,21.07
2023-02-28T21:32:35.492Z,27.10
2023-02-28T21:35:37.871Z,27.98
2023-02-28T21:38:41.032Z,31.00
2023-02-28T21:41:43.722Z,29.15
2023-02-28T21:44:46.200Z,28.42
2023-02-28T21:47:48.602Z,29.27
2023-02-28T21:51:12.206Z,29.65
2023-02-28T21:54:15.134Z,23.33
2023-02-28T21:57:17.523Z,25.33
2023-02-28T22:00:20.639Z,33.20
2023-02-28T22:03:22.911Z,24.10
2023-02-28T22:06:30.802Z,34.65
2023-02-28T22:09:33.535Z,30.75
2023-02-28T22:12:35.926Z,31.02
2023-02-28T22:15:38.445Z,31.13
2023-02-28T22:18:41.271Z,33.20
2023-02-28T22:21:45.005Z,32.13
2023-02-28T22:27:49.853Z,28.05
2023-02-28T22:30:52.196Z,30.35
2023-02-28T22:33:57.219Z,30.35
2023-02-28T22:36:59.684Z,30.73
2023-02-28T22:40:02.123Z,29.35
2023-02-28T22:43:06.076Z,28.05
2023-02-28T22:46:10.898Z,29.25
2023-02-28T22:49:13.357Z,30.23
2023-02-28T22:52:15.896Z,29.25
2023-02-28T22:55:18.217Z,32.10
2023-02-28T22:58:20.582Z,28.83
2023-02-28T23:01:26.309Z,25.60
2023-02-28T23:04:28.838Z,25.55
2023-02-28T23:07:31.281Z,27.73
2023-02-28T23:10:33.929Z,25.33
2023-02-28T23:13:36.901Z,23.55
2023-02-28T23:16:42.442Z,22.45
2023-02-28T23:19:44.868Z,27.00
2023-02-28T23:22:50.637Z,23.48
2023-02-28T23:25:53.496Z,22.98
2023-02-28T23:28:55.877Z,21.13
2023-02-28T23:31:58.511Z,22.05
2023-02-28T23:35:00.961Z,22.30
2023-02-28T23:38:03.338Z,23.60
2023-02-28T23:41:12.735Z,22.25
2023-02-28T23:44:17.167Z,21.45
2023-02-28T23:47:19.623Z,22.52
2023-02-28T23:50:21.909Z,20.38
2023-02-28T23:53:25.185Z,18.63
2023-02-28T23:56:27.492Z,14.60
2023-02-28T23:59:29.906Z,17.05
